Time;durP1;ratioP1;P1;durP2;ratioP2;P2;SDS_P1;SDS_P2;PMS_P1;PMS_P2;Temp;Humidity;BMP_temperature;BMP_pressure;BME280_temperature;BME280_humidity;BME280_pressure;Samples;Min_cycle;Max_cycle;Signal;HPM_P1;HPM_P2
2023/04/09 00:01:09;;;;;;;81.32;36.10;;;;;;;6.78;50.76;102743.69;5013826;28;20055;-74
2023/04/09 00:03:35;;;;;;;78.20;35.22;;;;;;;6.80;51.26;102739.38;5031125;28;20045;-75
2023/04/09 00:06:06;;;;;;;85.25;35.05;;;;;;;6.98;50.69;102741.22;5029522;28;20490;-75
2023/04/09 00:08:31;;;;;;;83.30;37.20;;;;;;;7.03;50.33;102743.84;5032063;28;20710;-74
2023/04/09 00:10:59;;;;;;;78.55;33.47;;;;;;;6.93;50.30;102744.63;5027726;28;20028;-74
2023/04/09 00:13:25;;;;;;;90.22;39.50;;;;;;;6.93;50.27;102737.69;5006879;28;20421;-77
2023/04/09 00:15:52;;;;;;;80.72;35.75;;;;;;;6.90;50.32;102738.56;5031072;28;20037;-76
2023/04/09 00:18:18;;;;;;;80.80;37.65;;;;;;;6.91;50.58;102748.13;5031204;28;20048;-76
2023/04/09 00:20:43;;;;;;;93.10;38.13;;;;;;;6.85;50.25;102744.59;5016834;28;20063;-75
2023/04/09 00:23:09;;;;;;;77.50;35.28;;;;;;;6.78;50.72;102743.69;5033761;28;20643;-77
2023/04/09 00:25:37;;;;;;;80.65;38.17;;;;;;;6.85;51.03;102742.00;5031807;28;20068;-77
2023/04/09 00:28:02;;;;;;;91.03;39.72;;;;;;;6.84;50.73;102737.66;5030169;28;20159;-73
2023/04/09 00:30:32;;;;;;;82.43;38.30;;;;;;;6.79;50.75;102737.63;5031056;28;20032;-72
2023/04/09 00:32:57;;;;;;;85.90;41.33;;;;;;;6.75;50.37;102733.28;5003554;28;20189;-72
2023/04/09 00:35:23;;;;;;;94.55;44.83;;;;;;;6.39;51.37;102726.97;5016143;28;20044;-71
2023/04/09 00:37:48;;;;;;;103.65;46.65;;;;;;;6.33;51.67;102734.75;5020542;28;20128;-72
2023/04/09 00:40:15;;;;;;;95.68;46.15;;;;;;;6.48;51.66;102733.97;5013485;28;20127;-72
2023/04/09 00:42:43;;;;;;;91.05;45.97;;;;;;;6.52;51.83;102730.53;5011839;28;20526;-71
2023/04/09 00:45:09;;;;;;;100.82;47.15;;;;;;;6.50;51.33;102725.31;5028962;28;20025;-75
2023/04/09 00:47:35;;;;;;;93.13;45.20;;;;;;;6.77;50.78;102726.34;5025793;28;20584;-72
2023/04/09 00:50:01;;;;;;;96.97;44.33;;;;;;;6.83;50.31;102721.19;5032747;28;20032;-70
2023/04/09 00:52:29;;;;;;;105.05;47.13;;;;;;;6.78;50.57;102717.72;5027624;28;20160;-71
2023/04/09 00:54:57;;;;;;;101.60;47.58;;;;;;;6.71;50.84;102715.94;5030528;28;20033;-71
2023/04/09 00:57:27;;;;;;;92.90;45.55;;;;;;;6.70;50.63;102719.38;5012144;28;20039;-70
2023/04/09 00:59:53;;;;;;;94.97;46.75;;;;;;;6.71;50.71;102721.16;5030577;28;20033;-69
2023/04/09 01:02:19;;;;;;;96.30;47.80;;;;;;;6.69;51.21;102717.66;5008504;28;20078;-69
2023/04/09 01:04:45;;;;;;;103.03;47.47;;;;;;;6.61;50.81;102720.19;5029373;28;20040;-69
2023/04/09 01:07:19;;;;;;;93.07;45.50;;;;;;;6.62;51.06;102715.88;5023227;28;20406;-75
2023/04/09 01:09:53;;;;;;;92.07;43.45;;;;;;;6.63;51.12;102708.09;5007555;28;20045;-76
2023/04/09 01:12:31;;;;;;;99.15;45.40;;;;;;;6.64;51.25;102719.34;5012208;28;20479;-73
2023/04/09 01:15:24;;;;;;;97.18;45.33;;;;;;;6.66;51.04;102713.31;5029789;28;20033;-73
2023/04/09 01:18:01;;;;;;;87.25;43.47;;;;;;;6.70;51.13;102714.19;5024765;28;20153;-73
2023/04/09 01:20:33;;;;;;;93.70;41.97;;;;;;;6.80;51.06;102717.72;5029443;28;20605;-74
2023/04/09 01:23:32;;;;;;;94.80;43.38;;;;;;;6.76;51.18;102718.56;5029672;28;20044;-73
2023/04/09 01:26:20;;;;;;;95.30;43.08;;;;;;;6.80;51.10;102712.53;5005099;28;20073;-70
2023/04/09 01:28:56;;;;;;;93.25;43.60;;;;;;;6.73;50.81;102719.44;5029585;28;20549;-70
2023/04/09 01:31:47;;;;;;;96.25;43.28;;;;;;;6.72;51.11;102728.06;5026292;28;20648;-74
2023/04/09 01:34:13;;;;;;;84.55;42.33;;;;;;;6.69;51.23;102722.88;5030967;28;20037;-72
2023/04/09 01:36:41;;;;;;;86.20;40.35;;;;;;;6.76;51.22;102713.38;5026497;28;20116;-74
2023/04/09 01:39:07;;;;;;;89.88;44.17;;;;;;;6.77;51.30;102715.09;5047758;28;20395;-74
2023/04/09 01:41:34;;;;;;;99.43;44.13;;;;;;;6.78;50.98;102714.25;5011132;28;20047;-74
2023/04/09 01:44:02;;;;;;;97.82;45.00;;;;;;;6.76;50.76;102711.63;5031895;28;20048;-73
2023/04/09 01:46:32;;;;;;;96.50;44.33;;;;;;;6.78;50.98;102709.91;5021682;28;20040;-75
2023/04/09 01:48:58;;;;;;;94.20;43.40;;;;;;;6.86;51.16;102704.75;5029141;28;20057;-74
2023/04/09 01:51:25;;;;;;;92.03;43.38;;;;;;;6.81;50.65;102709.91;5024585;28;20048;-71
2023/04/09 01:53:51;;;;;;;86.78;41.30;;;;;;;6.83;50.78;102710.81;5027965;28;20045;-70
2023/04/09 01:56:16;;;;;;;91.05;42.53;;;;;;;6.84;50.91;102707.34;5019733;28;20456;-70
2023/04/09 01:58:41;;;;;;;100.07;44.53;;;;;;;6.77;50.68;102704.69;5028455;28;20052;-73
2023/04/09 02:01:23;;;;;;;99.68;44.25;;;;;;;6.72;50.88;102712.47;5016274;28;20029;-73
2023/04/09 02:04:02;;;;;;;99.82;45.53;;;;;;;6.67;50.78;102711.59;5022723;28;20044;-73
2023/04/09 02:06:51;;;;;;;92.43;43.60;;;;;;;6.69;51.01;102712.47;5012175;28;20140;-74
2023/04/09 02:09:20;;;;;;;92.50;43.65;;;;;;;6.68;51.03;102710.72;5032220;28;20417;-75
2023/04/09 02:11:49;;;;;;;89.32;45.42;;;;;;;6.76;51.14;102714.25;5028705;28;20068;-74
2023/04/09 02:14:16;;;;;;;96.72;45.63;;;;;;;6.70;51.04;102709.84;5028905;28;20033;-75
2023/04/09 02:16:42;;;;;;;94.30;43.85;;;;;;;6.68;51.01;102703.78;5030770;28;20037;-74
2023/04/09 02:19:07;;;;;;;106.63;48.40;;;;;;;6.69;51.14;102708.13;5029694;28;20497;-74
2023/04/09 02:21:33;;;;;;;87.75;42.58;;;;;;;6.70;51.22;102706.41;5030763;28;20623;-73
2023/04/09 02:23:58;;;;;;;106.43;45.88;;;;;;;6.73;51.11;102709.03;5017414;28;20545;-74
2023/04/09 02:26:24;;;;;;;99.90;45.53;;;;;;;6.72;51.07;102707.28;5034670;28;20037;-74
2023/04/09 02:28:50;;;;;;;99.68;46.05;;;;;;;6.73;51.11;102703.84;5031448;28;20110;-73
2023/04/09 02:31:16;;;;;;;113.75;47.85;;;;;;;6.60;51.02;102702.88;5025630;28;20604;-74
2023/04/09 02:33:41;;;;;;;92.50;44.97;;;;;;;6.60;51.19;102702.88;5034001;28;20063;-73
2023/04/09 02:36:11;;;;;;;102.35;48.60;;;;;;;6.56;51.32;102697.66;5036461;28;20128;-74
2023/04/09 02:38:40;;;;;;;96.28;45.05;;;;;;;6.54;51.44;102701.97;5032643;28;20115;-75
2023/04/09 02:41:06;;;;;;;97.35;45.95;;;;;;;6.58;51.70;102698.56;5040229;28;20509;-73
2023/04/09 02:43:31;;;;;;;107.45;48.35;;;;;;;6.47;51.80;102694.16;5035721;28;20099;-75
2023/04/09 02:45:57;;;;;;;103.93;46.85;;;;;;;6.39;51.76;102703.59;5018763;28;20029;-74
2023/04/09 02:48:22;;;;;;;103.95;45.00;;;;;;;6.37;52.01;102687.13;5015936;28;20151;-73
2023/04/09 02:50:48;;;;;;;99.72;46.72;;;;;;;6.17;52.53;102688.69;5031946;28;20025;-74
2023/04/09 02:53:13;;;;;;;95.38;45.28;;;;;;;6.25;52.44;102687.03;5035060;28;20642;-76
2023/04/09 02:55:39;;;;;;;101.28;46.08;;;;;;;6.24;52.67;102693.09;5030453;28;20434;-73
2023/04/09 02:58:04;;;;;;;99.55;42.78;;;;;;;6.28;52.33;102689.69;5032279;28;20036;-72
2023/04/09 03:00:30;;;;;;;103.28;47.15;;;;;;;6.36;52.68;102688.00;5025971;28;20850;-75
2023/04/09 03:02:56;;;;;;;89.53;44.83;;;;;;;6.27;52.54;102693.13;5014266;28;20123;-74
2023/04/09 03:05:22;;;;;;;87.68;44.92;;;;;;;6.25;52.81;102682.72;5031521;28;20032;-73
2023/04/09 03:07:48;;;;;;;87.45;41.33;;;;;;;6.36;52.57;102680.22;5012747;28;20031;-75
2023/04/09 03:10:14;;;;;;;94.75;42.58;;;;;;;6.37;52.43;102674.16;5027216;28;20108;-74
2023/04/09 03:12:39;;;;;;;92.90;41.38;;;;;;;6.40;52.68;102678.53;5046035;28;20559;-71
2023/04/09 03:15:06;;;;;;;90.97;41.30;;;;;;;6.35;52.54;102682.78;5048900;28;20033;-69
2023/04/09 03:17:31;;;;;;;94.75;43.33;;;;;;;6.43;52.45;102676.78;5030626;28;20409;-69
2023/04/09 03:19:57;;;;;;;99.85;42.85;;;;;;;6.40;52.66;102674.19;5025189;28;20120;-71
2023/04/09 03:22:23;;;;;;;95.97;43.33;;;;;;;6.39;52.70;102672.44;5030635;28;20124;-71
2023/04/09 03:24:51;;;;;;;105.15;44.03;;;;;;;6.34;52.64;102666.34;5031726;28;20029;-71
2023/04/09 03:27:17;;;;;;;99.15;43.83;;;;;;;6.45;52.91;102667.28;5027559;28;20425;-71
2023/04/09 03:29:43;;;;;;;98.38;44.55;;;;;;;6.42;52.84;102656.88;5025995;28;20123;-74
2023/04/09 03:32:08;;;;;;;102.13;44.05;;;;;;;6.36;52.94;102656.84;5044477;28;20035;-73
2023/04/09 03:34:34;;;;;;;96.50;43.35;;;;;;;6.21;53.25;102657.56;5029463;28;20041;-72
2023/04/09 03:36:59;;;;;;;94.68;41.97;;;;;;;6.35;52.80;102655.13;5030963;28;20492;-75
2023/04/09 03:39:31;;;;;;;100.53;42.92;;;;;;;6.22;52.91;102650.69;5016963;28;20032;-73
2023/04/09 03:41:57;;;;;;;93.82;41.33;;;;;;;6.15;53.29;102647.16;5006704;28;21001;-73
2023/04/09 03:44:27;;;;;;;95.28;40.88;;;;;;;6.22;53.20;102648.94;5031467;28;20033;-72
2023/04/09 03:47:06;;;;;;;88.05;39.22;;;;;;;6.24;53.35;102651.56;5033208;28;20164;-72
2023/04/09 03:49:36;;;;;;;96.22;43.67;;;;;;;6.35;53.08;102649.94;5016893;28;20055;-72
2023/04/09 03:52:19;;;;;;;93.20;40.63;;;;;;;6.41;52.91;102649.09;5029307;28;20090;-71
2023/04/09 03:54:52;;;;;;;92.45;41.35;;;;;;;6.32;52.82;102652.50;5032051;28;20032;-71
2023/04/09 03:57:21;;;;;;;103.65;41.45;;;;;;;6.27;53.28;102652.44;5030806;28;20048;-72
2023/04/09 03:59:50;;;;;;;96.90;43.85;;;;;;;6.24;52.96;102644.63;5026495;28;20938;-73
2023/04/09 04:02:19;;;;;;;101.60;41.08;;;;;;;6.32;53.11;102649.03;5027335;28;20076;-72
2023/04/09 04:04:52;;;;;;;97.38;43.50;;;;;;;6.22;53.59;102650.69;5031082;28;20048;-71
2023/04/09 04:07:18;;;;;;;92.25;43.10;;;;;;;6.26;53.28;102657.59;5029044;28;20044;-72
2023/04/09 04:09:57;;;;;;;101.05;42.30;;;;;;;6.18;53.44;102659.28;5019110;28;20028;-73
2023/04/09 04:12:23;;;;;;;99.35;43.28;;;;;;;6.26;53.41;102657.59;5030752;28;20037;-71
2023/04/09 04:15:01;;;;;;;111.10;45.65;;;;;;;6.23;53.21;102660.19;5032033;28;20111;-72
2023/04/09 04:17:35;;;;;;;105.28;44.45;;;;;;;6.20;53.57;102661.03;5027220;28;20677;-75
2023/04/09 04:20:04;;;;;;;99.90;42.83;;;;;;;6.33;53.26;102663.72;5034685;28;20116;-74
2023/04/09 04:22:35;;;;;;;93.93;43.75;;;;;;;6.21;53.58;102665.34;5028593;28;20045;-75
2023/04/09 04:25:03;;;;;;;101.38;42.70;;;;;;;6.25;53.58;102668.84;5032462;28;20056;-75
2023/04/09 04:27:29;;;;;;;102.43;45.88;;;;;;;6.35;53.32;102655.13;5028255;28;20041;-75
2023/04/09 04:29:57;;;;;;;96.80;42.90;;;;;;;6.20;53.70;102660.19;5029997;28;20175;-75
2023/04/09 04:32:44;;;;;;;101.53;42.45;;;;;;;6.23;53.63;102665.38;5027611;28;20040;-73
2023/04/09 04:35:10;;;;;;;107.80;45.13;;;;;;;6.26;53.32;102662.78;5033172;28;20494;-71
2023/04/09 04:37:37;;;;;;;103.38;45.05;;;;;;;6.36;53.27;102671.56;5009625;28;20059;-74
2023/04/09 04:40:04;;;;;;;93.97;43.15;;;;;;;6.42;53.26;102667.28;5046466;28;20041;-73
2023/04/09 04:42:34;;;;;;;;;;;;;;;6.47;52.89;102675.09;5042651;28;20041;-71
2023/04/09 04:45:07;;;;;;;97.85;41.95;;;;;;;6.52;53.27;102673.38;5034271;28;20376;-71
2023/04/09 04:47:44;;;;;;;99.97;46.72;;;;;;;6.52;53.03;102680.31;5024071;28;20037;-72
2023/04/09 04:50:10;;;;;;;116.63;45.40;;;;;;;6.37;53.06;102681.94;5033019;28;20115;-72
2023/04/09 04:52:49;;;;;;;109.32;46.67;;;;;;;6.32;53.48;102681.06;5034708;28;20090;-77
2023/04/09 04:55:15;;;;;;;93.38;45.92;;;;;;;6.40;53.44;102684.59;5017183;28;20172;-69
2023/04/09 04:57:41;;;;;;;104.88;44.75;;;;;;;6.42;53.52;102687.19;5005676;28;20036;-75
2023/04/09 05:00:08;;;;;;;100.25;47.67;;;;;;;6.26;53.31;102675.78;5032232;28;20785;-75
2023/04/09 05:02:35;;;;;;;103.85;46.28;;;;;;;6.12;53.91;102678.28;5010712;28;20056;-74
2023/04/09 05:05:20;;;;;;;110.80;47.05;;;;;;;6.38;53.43;102673.31;5012401;28;20040;-73
2023/04/09 05:07:50;;;;;;;97.68;46.00;;;;;;;6.41;53.51;102672.47;5030750;28;20045;-73
2023/04/09 05:10:16;;;;;;;107.97;46.65;;;;;;;6.50;53.12;102673.38;5029807;28;20042;-72
2023/04/09 05:12:42;;;;;;;112.75;46.58;;;;;;;6.45;53.00;102674.22;5028465;28;20692;-72
2023/04/09 05:15:09;;;;;;;110.80;46.28;;;;;;;6.45;53.27;102677.69;5030693;28;20061;-75
2023/04/09 05:17:36;;;;;;;105.97;47.17;;;;;;;6.49;52.73;102674.25;5026876;28;20049;-71
2023/04/09 05:20:03;;;;;;;104.50;45.42;;;;;;;6.48;53.12;102672.53;5031009;28;20053;-73
2023/04/09 05:22:36;;;;;;;106.22;44.47;;;;;;;6.31;53.79;102670.66;5025330;28;20243;-75
2023/04/09 05:25:03;;;;;;;109.65;46.38;;;;;;;6.39;53.63;102672.44;5032425;28;20163;-69
2023/04/09 05:27:30;;;;;;;103.07;45.85;;;;;;;6.42;53.21;102672.47;5011586;28;20040;-72
2023/04/09 05:29:59;;;;;;;100.32;45.90;;;;;;;6.36;53.41;102672.44;5018345;28;20036;-72
2023/04/09 05:32:25;;;;;;;103.80;46.97;;;;;;;6.50;53.03;102670.78;5030833;28;20044;-72
2023/04/09 05:34:51;;;;;;;107.85;47.72;;;;;;;6.50;53.25;102672.50;5011920;28;20056;-74
2023/04/09 05:37:16;;;;;;;110.63;48.55;;;;;;;6.56;53.28;102679.47;5029569;28;20442;-71
2023/04/09 05:39:47;;;;;;;109.85;46.75;;;;;;;6.57;53.14;102681.19;5044727;28;20111;-77
2023/04/09 05:42:13;;;;;;;117.22;48.97;;;;;;;6.60;52.87;102676.03;5016056;28;20124;-72
2023/04/09 05:44:49;;;;;;;111.20;47.03;;;;;;;6.66;53.05;102678.66;5014198;28;20033;-70
2023/04/09 05:47:18;;;;;;;115.10;49.13;;;;;;;6.57;53.21;102682.06;5013084;28;20035;-77
2023/04/09 05:50:00;;;;;;;113.00;47.88;;;;;;;6.43;53.30;102679.41;5014774;28;20569;-78
2023/04/09 05:52:27;;;;;;;99.85;47.38;;;;;;;6.47;53.37;102678.56;4999201;28;20103;-70
2023/04/09 05:54:54;;;;;;;107.95;47.97;;;;;;;6.63;53.16;102673.44;5026722;28;20932;-74
2023/04/09 05:57:30;;;;;;;105.38;46.28;;;;;;;6.66;52.92;102678.66;5029400;28;20037;-71
2023/04/09 05:59:59;;;;;;;107.47;46.47;;;;;;;6.69;52.98;102681.28;5030078;28;20025;-69
2023/04/09 06:02:25;;;;;;;104.85;46.22;;;;;;;6.67;52.76;102683.88;5015632;28;20390;-75
2023/04/09 06:04:52;;;;;;;105.53;46.17;;;;;;;6.76;53.08;102690.84;5013512;28;20051;-73
2023/04/09 06:07:18;;;;;;;103.20;45.40;;;;;;;6.83;52.92;102683.94;5031674;28;20032;-74
2023/04/09 06:09:45;;;;;;;116.85;47.47;;;;;;;6.93;52.73;102682.25;5030470;28;20041;-75
2023/04/09 06:12:12;;;;;;;103.25;49.13;;;;;;;6.96;52.62;102679.69;5034018;28;20040;-76
2023/04/09 06:14:38;;;;;;;100.80;44.40;;;;;;;7.03;52.71;102681.44;5030978;28;20071;-75
2023/04/09 06:17:04;;;;;;;101.47;44.28;;;;;;;6.97;52.40;102686.59;5048096;28;20537;-75
2023/04/09 06:19:30;;;;;;;114.38;46.03;;;;;;;7.00;52.07;102679.69;5032799;28;20033;-75
2023/04/09 06:21:55;;;;;;;90.20;43.38;;;;;;;6.95;52.38;102683.97;5018057;28;20044;-72
2023/04/09 06:24:21;;;;;;;87.72;42.08;;;;;;;6.95;52.48;102685.72;5038525;28;20032;-81
2023/04/09 06:26:46;;;;;;;102.90;46.35;;;;;;;6.97;52.18;102691.81;5022715;28;20083;-77
2023/04/09 06:29:12;;;;;;;99.22;42.08;;;;;;;6.96;52.31;102680.53;5034290;28;20110;-74
2023/04/09 06:31:41;;;;;;;79.00;38.40;;;;;;;6.98;52.22;102683.16;5034257;28;20146;-74
2023/04/09 06:34:06;;;;;;;92.28;38.42;;;;;;;6.88;51.99;102690.03;5034922;28;20040;-76
2023/04/09 06:36:32;;;;;;;95.63;41.72;;;;;;;6.99;51.71;102692.69;5036842;28;20033;-74
2023/04/09 06:38:58;;;;;;;84.75;39.53;;;;;;;6.96;51.76;102690.94;5009829;28;20056;-77
2023/04/09 06:41:25;;;;;;;99.00;38.78;;;;;;;7.03;51.51;102689.22;5033495;28;20033;-74
2023/04/09 06:43:51;;;;;;;77.72;35.60;;;;;;;6.93;51.41;102687.44;5032799;28;20057;-79
2023/04/09 06:46:18;;;;;;;79.15;35.13;;;;;;;7.14;50.83;102686.69;5034493;28;20067;-73
2023/04/09 06:48:45;;;;;;;75.18;36.22;;;;;;;7.20;50.66;102689.28;5031584;28;20690;-71
2023/04/09 06:51:11;;;;;;;79.05;34.75;;;;;;;7.14;50.37;102690.13;5032408;28;20567;-70
2023/04/09 06:53:38;;;;;;;62.55;32.45;;;;;;;7.29;50.03;102690.19;5033413;28;20513;-72
2023/04/09 06:56:04;;;;;;;73.97;33.35;;;;;;;7.40;50.05;102689.34;5031366;28;20029;-71
2023/04/09 06:58:30;;;;;;;76.05;33.42;;;;;;;7.17;50.00;102695.34;5033736;28;20021;-70
2023/04/09 07:00:56;;;;;;;66.25;30.30;;;;;;;7.31;49.40;102692.78;5028044;28;20039;-71
2023/04/09 07:03:21;;;;;;;58.38;29.83;;;;;;;7.12;49.33;102694.47;5032892;28;20040;-72
2023/04/09 07:05:47;;;;;;;59.95;28.17;;;;;;;7.50;48.91;102693.69;5027936;28;20533;-72
2023/04/09 07:08:13;;;;;;;61.60;28.13;;;;;;;7.57;48.39;102692.88;5031718;28;20037;-69
2023/04/09 07:10:39;;;;;;;62.80;29.13;;;;;;;7.61;48.29;102692.03;5028701;28;20072;-70
2023/04/09 07:13:05;;;;;;;61.58;27.40;;;;;;;7.82;47.19;102695.50;5011562;28;20045;-72
2023/04/09 07:15:30;;;;;;;53.65;27.20;;;;;;;7.61;47.69;102699.81;5033705;28;20888;-70
2023/04/09 07:17:56;;;;;;;47.60;23.98;;;;;;;7.79;46.89;102705.94;5028954;28;20946;-72
2023/04/09 07:20:22;;;;;;;55.58;23.42;;;;;;;7.93;46.51;102704.19;5032113;28;20943;-72
2023/04/09 07:22:47;;;;;;;48.80;22.05;;;;;;;8.23;45.87;102703.31;5028740;28;20627;-69
2023/04/09 07:25:14;;;;;;;39.47;19.35;;;;;;;8.09;45.20;102708.56;5033918;28;20029;-71
2023/04/09 07:27:40;;;;;;;36.83;19.38;;;;;;;8.20;44.81;102707.66;5027875;28;20049;-71
2023/04/09 07:30:06;;;;;;;41.40;19.88;;;;;;;8.38;44.83;102714.59;5010345;28;20064;-72
2023/04/09 07:32:31;;;;;;;38.38;18.65;;;;;;;8.19;44.63;102709.41;5029251;28;20041;-72
2023/04/09 07:34:58;;;;;;;35.05;17.00;;;;;;;8.17;44.53;102702.47;5025245;28;20493;-72
2023/04/09 07:37:24;;;;;;;34.90;15.52;;;;;;;8.26;43.34;102710.25;5030067;28;20032;-68
2023/04/09 07:39:52;;;;;;;25.67;12.82;;;;;;;7.98;43.42;102704.19;5028685;28;20044;-72
2023/04/09 07:42:18;;;;;;;28.27;12.00;;;;;;;7.87;43.10;102701.56;5025166;28;20269;-72
2023/04/09 07:44:43;;;;;;;25.88;13.15;;;;;;;7.91;43.06;102700.72;5029865;28;20047;-72
2023/04/09 07:47:10;;;;;;;31.35;15.65;;;;;;;8.05;42.57;102709.41;5031585;28;20040;-72
2023/04/09 07:49:36;;;;;;;33.08;14.45;;;;;;;7.41;43.82;102714.50;5030858;28;20505;-71
2023/04/09 07:52:03;;;;;;;31.42;13.45;;;;;;;7.68;43.37;102705.91;5028365;28;20039;-71
2023/04/09 07:54:30;;;;;;;31.42;13.82;;;;;;;7.97;43.26;102710.28;5030285;28;20091;-72
2023/04/09 07:56:56;;;;;;;30.02;12.95;;;;;;;8.37;42.72;102716.31;5027543;28;20044;-70
2023/04/09 07:59:22;;;;;;;27.48;13.93;;;;;;;8.39;42.09;102714.59;5031420;28;20044;-70
2023/04/09 08:01:48;;;;;;;28.92;14.30;;;;;;;8.34;41.88;102716.34;5028805;28;20082;-69
2023/04/09 08:04:13;;;;;;;32.60;13.68;;;;;;;8.46;41.82;102718.91;5033381;28;20040;-73
2023/04/09 08:06:39;;;;;;;25.23;11.50;;;;;;;8.30;41.49;102714.59;5027255;28;20123;-74
2023/04/09 08:09:05;;;;;;;27.45;12.68;;;;;;;8.08;42.23;102719.81;5024342;28;20037;-71
2023/04/09 08:11:30;;;;;;;28.88;13.82;;;;;;;8.16;42.82;102717.22;5029280;28;20570;-69
2023/04/09 08:13:56;;;;;;;25.58;12.57;;;;;;;8.27;42.65;102723.31;5027773;28;20580;-67
2023/04/09 08:16:23;;;;;;;25.42;12.68;;;;;;;8.38;41.98;102717.19;5021078;28;20029;-72
2023/04/09 08:18:52;;;;;;;34.17;13.27;;;;;;;8.33;42.12;102719.81;5029890;28;20124;-71
2023/04/09 08:21:18;;;;;;;28.25;14.07;;;;;;;8.19;42.31;102724.16;5028713;28;20041;-70
2023/04/09 08:23:43;;;;;;;25.25;12.20;;;;;;;8.13;42.46;102718.06;5028677;28;20043;-71
2023/04/09 08:26:09;;;;;;;26.48;13.32;;;;;;;8.29;42.57;102718.06;5027044;28;20039;-71
2023/04/09 08:28:34;;;;;;;22.00;11.93;;;;;;;8.21;42.46;102714.63;5026261;28;20079;-71
2023/04/09 08:31:00;;;;;;;24.13;11.65;;;;;;;8.08;42.17;102721.56;5023659;28;20025;-72
2023/04/09 08:33:25;;;;;;;21.25;11.38;;;;;;;7.97;42.02;102716.34;5016530;28;20033;-70
2023/04/09 08:35:51;;;;;;;25.50;12.55;;;;;;;8.40;41.19;102726.72;5024686;28;20151;-71
2023/04/09 08:38:18;;;;;;;22.67;12.75;;;;;;;8.42;41.74;102725.00;5027907;28;20075;-71
2023/04/09 08:40:43;;;;;;;25.60;12.18;;;;;;;8.14;41.49;102718.97;5041956;28;20025;-70
2023/04/09 08:43:10;;;;;;;23.75;13.20;;;;;;;8.16;41.85;102722.44;5026186;28;20049;-71
2023/04/09 08:45:40;;;;;;;26.80;12.25;;;;;;;8.13;42.29;102712.88;5001607;28;20589;-71
2023/04/09 08:48:08;;;;;;;29.48;13.43;;;;;;;8.45;42.10;102719.81;5029360;28;20045;-70
2023/04/09 08:50:34;;;;;;;21.42;11.48;;;;;;;8.42;41.51;102719.78;5026781;28;20033;-71
2023/04/09 08:53:04;;;;;;;20.95;11.60;;;;;;;8.39;41.63;102712.00;5014328;28;20170;-70
2023/04/09 08:55:30;;;;;;;20.08;11.38;;;;;;;8.42;41.85;102722.41;5026349;28;20090;-71
2023/04/09 08:57:57;;;;;;;22.27;13.57;;;;;;;8.08;41.83;102712.00;5029752;28;20457;-71
2023/04/09 09:00:23;;;;;;;26.05;14.10;;;;;;;8.81;42.02;102715.41;5013706;28;20569;-71
2023/04/09 09:03:09;;;;;;;32.08;14.63;;;;;;;8.65;41.56;102706.72;5028526;28;20529;-70
2023/04/09 09:05:42;;;;;;;24.83;12.43;;;;;;;8.47;41.53;102712.84;5005005;28;20036;-71
2023/04/09 09:08:22;;;;;;;29.48;12.73;;;;;;;8.89;41.65;102708.41;5031818;28;20045;-71
2023/04/09 09:10:48;;;;;;;22.50;12.45;;;;;;;8.81;40.87;102707.59;5026584;28;20024;-71
2023/04/09 09:13:21;;;;;;;27.83;12.27;;;;;;;8.89;40.46;102695.38;5025740;28;20040;-71
2023/04/09 09:15:54;;;;;;;23.50;13.50;;;;;;;8.75;41.02;102707.59;5029151;28;20040;-71
2023/04/09 09:18:20;;;;;;;28.13;12.90;;;;;;;8.97;40.60;102696.22;5010078;28;20701;-72
2023/04/09 09:20:46;;;;;;;23.50;13.05;;;;;;;8.57;41.17;102700.66;5028353;28;20036;-71
2023/04/09 09:23:12;;;;;;;21.70;12.23;;;;;;;8.69;40.97;102703.22;5024695;28;20041;-71
2023/04/09 09:25:41;;;;;;;25.08;13.07;;;;;;;9.00;40.82;102702.28;5025963;28;20513;-71
2023/04/09 09:28:09;;;;;;;20.63;12.50;;;;;;;9.00;40.98;102707.50;5024486;28;20048;-71
2023/04/09 09:30:38;;;;;;;30.15;12.77;;;;;;;9.08;40.58;102705.75;5024447;28;20056;-71
2023/04/09 09:33:08;;;;;;;24.92;12.35;;;;;;;9.47;40.06;102706.38;5026788;28;20083;-71
2023/04/09 09:35:56;;;;;;;34.88;14.75;;;;;;;9.30;40.03;102704.75;5022993;28;20040;-71
2023/04/09 09:38:21;;;;;;;30.48;13.98;;;;;;;9.03;40.30;102702.25;5029111;28;20417;-72
2023/04/09 09:40:48;;;;;;;29.13;14.70;;;;;;;8.89;41.00;102689.28;5032151;28;20024;-71
2023/04/09 09:43:14;;;;;;;26.55;12.88;;;;;;;8.79;40.87;102698.91;5032628;28;20505;-71
2023/04/09 09:45:40;;;;;;;26.73;13.80;;;;;;;9.03;40.40;102691.84;5031415;28;20043;-71
2023/04/09 09:48:06;;;;;;;25.88;13.32;;;;;;;9.27;40.43;102696.94;5022549;28;20688;-71
2023/04/09 09:50:35;;;;;;;27.63;13.15;;;;;;;9.55;40.14;102696.78;5022746;28;20572;-72
2023/04/09 09:53:04;;;;;;;29.70;13.60;;;;;;;9.44;40.49;102691.63;5029999;28;20033;-71
2023/04/09 09:55:31;;;;;;;24.00;12.30;;;;;;;9.53;40.01;102688.09;5030978;28;20384;-71
2023/04/09 09:58:06;;;;;;;23.60;12.80;;;;;;;10.07;38.70;102682.47;5007374;28;20528;-71
2023/04/09 10:00:32;;;;;;;22.00;12.40;;;;;;;10.60;37.70;102683.69;5030715;28;20032;-71
2023/04/09 10:03:13;;;;;;;22.67;11.48;;;;;;;10.92;37.07;102683.31;5030932;28;20071;-71
2023/04/09 10:05:40;;;;;;;18.58;10.88;;;;;;;11.19;36.47;102679.47;5044094;28;20540;-72
2023/04/09 10:08:06;;;;;;;27.23;11.63;;;;;;;11.10;36.96;102683.97;5030812;28;20048;-71
2023/04/09 10:10:32;;;;;;;24.27;12.27;;;;;;;11.16;35.75;102682.13;5030345;28;20022;-72
2023/04/09 10:12:58;;;;;;;19.92;11.20;;;;;;;10.85;36.68;102681.66;5031286;28;20040;-71
2023/04/09 10:15:27;;;;;;;21.83;11.60;;;;;;;11.28;35.59;102678.47;5030129;28;20112;-72
2023/04/09 10:17:54;;;;;;;24.02;12.48;;;;;;;11.97;35.08;102676.56;5030452;28;20052;-71
2023/04/09 10:20:31;;;;;;;20.60;10.32;;;;;;;12.24;34.10;102676.06;5043486;28;20127;-71
2023/04/09 10:23:05;;;;;;;23.05;12.90;;;;;;;12.00;35.41;102666.91;5030378;28;20060;-71
2023/04/09 10:25:31;;;;;;;21.73;10.65;;;;;;;11.72;35.48;102671.69;5023909;28;20057;-71
2023/04/09 10:28:01;;;;;;;19.27;10.57;;;;;;;12.41;34.12;102662.66;5029227;28;20552;-71
2023/04/09 10:30:36;;;;;;;22.80;11.45;;;;;;;12.08;34.39;102659.75;5027385;28;20041;-72
2023/04/09 10:33:13;;;;;;;24.25;11.85;;;;;;;12.18;34.97;102660.47;5046334;28;20067;-71
2023/04/09 10:35:39;;;;;;;20.00;11.13;;;;;;;12.55;34.19;102644.00;5044453;28;20036;-72
2023/04/09 10:38:08;;;;;;;18.65;10.80;;;;;;;12.73;34.52;102641.94;5031227;28;20229;-71
2023/04/09 10:40:34;;;;;;;21.30;12.05;;;;;;;12.98;33.09;102640.53;5029300;28;20846;-71
2023/04/09 10:43:01;;;;;;;16.48;10.05;;;;;;;13.26;33.11;102635.50;5030153;28;20132;-71
2023/04/09 10:45:38;;;;;;;22.35;13.25;;;;;;;13.07;33.87;102637.69;5028526;28;20080;-71
2023/04/09 10:48:04;;;;;;;21.77;10.93;;;;;;;13.53;32.44;102641.00;5029516;28;20045;-70
2023/04/09 10:50:31;;;;;;;23.08;11.50;;;;;;;12.97;33.16;102641.41;5031093;28;20043;-71
2023/04/09 10:52:59;;;;;;;18.70;10.07;;;;;;;13.10;33.36;102642.00;5030215;28;20484;-72
2023/04/09 10:55:40;;;;;;;20.70;10.50;;;;;;;12.87;33.85;102629.38;5044504;28;20028;-72
2023/04/09 10:58:08;;;;;;;20.48;11.48;;;;;;;12.20;34.14;102628.97;5030133;28;20708;-72
2023/04/09 11:00:38;;;;;;;24.10;12.60;;;;;;;12.19;35.17;102625.47;5043788;28;20044;-72
2023/04/09 11:03:24;;;;;;;23.15;10.52;;;;;;;12.81;34.74;102617.25;5029018;28;20037;-71
2023/04/09 11:05:52;;;;;;;20.70;12.13;;;;;;;12.15;34.22;102618.56;5028386;28;20614;-72
2023/04/09 11:08:20;;;;;;;18.83;11.05;;;;;;;12.65;34.48;102614.06;5022933;28;20043;-72
2023/04/09 11:10:49;;;;;;;25.95;13.55;;;;;;;13.44;32.88;102604.44;5029550;28;20119;-71
2023/04/09 11:13:16;;;;;;;22.25;12.27;;;;;;;13.64;31.98;102601.34;5029254;28;20037;-72
2023/04/09 11:15:44;;;;;;;20.63;11.77;;;;;;;13.74;32.00;102608.06;5028734;28;20120;-71
2023/04/09 11:18:14;;;;;;;20.88;13.30;;;;;;;13.73;32.53;102599.34;5027472;28;20510;-71
2023/04/09 11:20:40;;;;;;;22.65;12.90;;;;;;;13.88;32.43;102595.44;5014782;28;20497;-71